Time;durP1;ratioP1;P1;durP2;ratioP2;P2;SDS_P1;SDS_P2;PMS_P1;PMS_P2;Temp;Humidity;BMP_temperature;BMP_pressure;BME280_temperature;BME280_humidity;BME280_pressure;Samples;Min_cycle;Max_cycle;Signal;HPM_P1;HPM_P2
2021/10/31 00:00:15;;;;;;;1.02;0.43;;;;;;;;;;5055524;28;20143;-65
2021/10/31 00:02:40;;;;;;;0.50;0.35;;;;;;;;;;5054815;28;20132;-66
2021/10/31 00:05:06;;;;;;;0.63;0.30;;;;;;;;;;5055407;28;20024;-65
2021/10/31 00:07:31;;;;;;;0.43;0.20;;;;;;;;;;5054947;28;20282;-64
2021/10/31 00:09:57;;;;;;;0.95;0.40;;;;;;;;;;5055263;28;20025;-66
2021/10/31 00:12:22;;;;;;;2.47;0.38;;;;;;;;;;5055050;28;20468;-65
2021/10/31 00:14:47;;;;;;;2.35;0.63;;;;;;;;;;5054972;28;20025;-64
2021/10/31 00:17:12;;;;;;;0.85;0.20;;;;;;;;;;5054997;28;20051;-65
2021/10/31 00:19:38;;;;;;;1.30;0.38;;;;;;;;;;5054874;28;20029;-66
2021/10/31 00:22:03;;;;;;;1.67;0.40;;;;;;;;;;5054930;28;20071;-65
2021/10/31 00:24:28;;;;;;;2.15;0.20;;;;;;;;;;5054785;28;20052;-65
2021/10/31 00:26:54;;;;;;;2.20;0.47;;;;;;;;;;5054831;28;20524;-64
2021/10/31 00:29:19;;;;;;;2.10;0.32;;;;;;;;;;5055079;28;20372;-66
2021/10/31 00:31:44;;;;;;;0.88;0.22;;;;;;;;;;5054835;28;20063;-65
2021/10/31 00:34:09;;;;;;;1.33;0.30;;;;;;;;;;5054813;28;20021;-65
2021/10/31 00:36:36;;;;;;;1.40;0.60;;;;;;;;;;5054457;28;20083;-65
2021/10/31 00:39:02;;;;;;;0.82;0.40;;;;;;;;;;5054799;28;20461;-65
2021/10/31 00:41:27;;;;;;;1.10;0.22;;;;;;;;;;5053471;28;20066;-65
2021/10/31 00:43:52;;;;;;;1.60;0.40;;;;;;;;;;5054189;28;20028;-65
2021/10/31 00:46:18;;;;;;;0.52;0.32;;;;;;;;;;5054615;28;20057;-65
2021/10/31 00:48:44;;;;;;;0.60;0.35;;;;;;;;;;5054579;28;20028;-66
2021/10/31 00:51:09;;;;;;;2.75;0.30;;;;;;;;;;5054498;28;20026;-66
2021/10/31 00:53:37;;;;;;;0.70;0.28;;;;;;;;;;5054340;28;20025;-64
2021/10/31 00:56:02;;;;;;;1.40;0.20;;;;;;;;;;5054433;28;20411;-65
2021/10/31 00:58:27;;;;;;;1.60;0.30;;;;;;;;;;5054390;28;20055;-66
2021/10/31 01:00:52;;;;;;;1.50;0.40;;;;;;;;;;5053955;28;20102;-65
2021/10/31 01:03:18;;;;;;;1.35;0.30;;;;;;;;;;5053806;28;20147;-65
2021/10/31 01:05:54;;;;;;;0.95;0.30;;;;;;;;;;5054164;28;20032;-65
2021/10/31 01:08:19;;;;;;;1.75;0.30;;;;;;;;;;5053931;28;20082;-65
2021/10/31 01:10:59;;;;;;;2.45;0.77;;;;;;;;;;5052631;28;20064;-64
2021/10/31 01:13:30;;;;;;;1.85;0.40;;;;;;;;;;5054027;28;20060;-66
2021/10/31 01:16:05;;;;;;;1.08;0.40;;;;;;;;;;5054029;28;20025;-66
2021/10/31 01:18:33;;;;;;;2.13;0.60;;;;;;;;;;5053780;28;20051;-65
2021/10/31 01:21:14;;;;;;;0.88;0.57;;;;;;;;;;5053987;28;20021;-65
2021/10/31 01:23:59;;;;;;;2.70;0.47;;;;;;;;;;5053466;28;20029;-66
2021/10/31 01:26:28;;;;;;;0.20;0.20;;;;;;;;;;5054044;28;20025;-64
2021/10/31 01:29:06;;;;;;;0.88;0.32;;;;;;;;;;5053422;28;20078;-65
2021/10/31 01:31:49;;;;;;;1.17;0.50;;;;;;;;;;5053772;28;20013;-65
2021/10/31 01:34:34;;;;;;;0.70;0.47;;;;;;;;;;5053729;28;20044;-65
2021/10/31 01:37:02;;;;;;;1.77;0.60;;;;;;;;;;5053408;28;20376;-66
2021/10/31 01:39:33;;;;;;;1.05;0.52;;;;;;;;;;5053527;28;20031;-64
2021/10/31 01:42:04;;;;;;;1.60;0.50;;;;;;;;;;5053436;28;20028;-66
2021/10/31 01:44:48;;;;;;;0.70;0.70;;;;;;;;;;5053393;28;20108;-64
2021/10/31 01:47:33;;;;;;;0.70;0.50;;;;;;;;;;5053558;28;20384;-64
2021/10/31 01:50:11;;;;;;;1.25;0.57;;;;;;;;;;5053222;28;20106;-66
2021/10/31 01:52:50;;;;;;;0.50;0.50;;;;;;;;;;5053309;28;20021;-65
2021/10/31 01:55:21;;;;;;;4.28;0.52;;;;;;;;;;5053311;28;20020;-66
2021/10/31 01:57:48;;;;;;;1.05;0.38;;;;;;;;;;5053268;28;20013;-65
2021/10/31 02:00:14;;;;;;;2.47;0.52;;;;;;;;;;5055143;23;20424;-64
2021/10/31 02:02:41;;;;;;;1.17;0.43;;;;;;;;;;5013384;28;20026;-66
2021/10/31 02:05:08;;;;;;;2.22;1.00;;;;;;;;;;5013329;28;20097;-66
2021/10/31 02:07:36;;;;;;;2.70;0.88;;;;;;;;;;5013497;28;20089;-64
2021/10/31 02:10:01;;;;;;;1.13;0.40;;;;;;;;;;5013315;28;20476;-65
2021/10/31 02:12:27;;;;;;;3.53;0.68;;;;;;;;;;5012210;28;20148;-66
2021/10/31 02:14:53;;;;;;;1.92;0.60;;;;;;;;;;5012482;28;20121;-65
2021/10/31 02:17:19;;;;;;;1.15;0.82;;;;;;;;;;5013542;28;20028;-65
2021/10/31 02:19:45;;;;;;;1.30;0.60;;;;;;;;;;5013361;28;20381;-66
2021/10/31 02:22:15;;;;;;;1.48;0.80;;;;;;;;;;5013066;28;20021;-65
2021/10/31 02:24:41;;;;;;;1.88;0.50;;;;;;;;;;5011636;28;20084;-65
2021/10/31 02:27:13;;;;;;;1.67;0.60;;;;;;;;;;5013438;28;20469;-66
2021/10/31 02:29:45;;;;;;;1.00;0.50;;;;;;;;;;5012717;28;20022;-65
2021/10/31 02:32:10;;;;;;;2.70;0.68;;;;;;;;;;5013279;28;20097;-64
2021/10/31 02:34:36;;;;;;;0.50;0.50;;;;;;;;;;5013262;28;20228;-64
2021/10/31 02:37:01;;;;;;;2.10;0.60;;;;;;;;;;5013306;28;20259;-66
2021/10/31 02:39:26;;;;;;;2.63;0.70;;;;;;;;;;5031189;28;20025;-65
2021/10/31 02:41:51;;;;;;;0.60;0.60;;;;;;;;;;5032759;28;20503;-64
2021/10/31 02:44:17;;;;;;;1.45;0.47;;;;;;;;;;5032743;28;20282;-65
2021/10/31 02:46:42;;;;;;;1.55;0.50;;;;;;;;;;5032610;28;20101;-65
2021/10/31 02:49:07;;;;;;;2.03;0.70;;;;;;;;;;5032767;28;20017;-65
2021/10/31 02:51:45;;;;;;;1.58;0.68;;;;;;;;;;5032861;28;20067;-64
2021/10/31 02:54:29;;;;;;;1.05;0.80;;;;;;;;;;5031470;28;20067;-66
2021/10/31 02:57:08;;;;;;;1.37;0.90;;;;;;;;;;5032597;28;20083;-65
2021/10/31 02:59:42;;;;;;;1.05;0.80;;;;;;;;;;5032514;28;20481;-65
2021/10/31 03:02:07;;;;;;;0.68;0.55;;;;;;;;;;5032640;28;20106;-65
2021/10/31 03:04:33;;;;;;;2.00;0.75;;;;;;;;;;5032471;28;20029;-64
2021/10/31 03:06:58;;;;;;;1.33;0.75;;;;;;;;;;5032485;28;20053;-64
2021/10/31 03:09:23;;;;;;;2.03;0.60;;;;;;;;;;5032687;28;20048;-66
2021/10/31 03:11:48;;;;;;;1.02;0.60;;;;;;;;;;5030953;28;20014;-65
2021/10/31 03:14:14;;;;;;;1.23;0.90;;;;;;;;;;5032695;28;20100;-65
2021/10/31 03:16:39;;;;;;;2.28;0.70;;;;;;;;;;5032347;28;20259;-64
2021/10/31 03:19:04;;;;;;;0.82;0.70;;;;;;;;;;5032388;28;20029;-65
2021/10/31 03:21:29;;;;;;;1.48;0.60;;;;;;;;;;5032204;28;20061;-65
2021/10/31 03:23:55;;;;;;;1.13;0.85;;;;;;;;;;5032425;28;20029;-65
2021/10/31 03:26:20;;;;;;;2.60;0.80;;;;;;;;;;5032156;28;20026;-66
2021/10/31 03:28:45;;;;;;;2.08;1.08;;;;;;;;;;5035355;28;20100;-65
2021/10/31 03:31:10;;;;;;;1.93;0.70;;;;;;;;;;5035868;28;20080;-64
2021/10/31 03:33:36;;;;;;;0.55;0.50;;;;;;;;;;5035966;28;20267;-64
2021/10/31 03:36:01;;;;;;;2.03;0.90;;;;;;;;;;5035675;28;20021;-65
2021/10/31 03:38:26;;;;;;;1.58;0.82;;;;;;;;;;5026106;28;20274;-66
2021/10/31 03:40:51;;;;;;;1.00;0.90;;;;;;;;;;5015624;28;20079;-64
2021/10/31 03:43:19;;;;;;;3.10;0.98;;;;;;;;;;5015924;28;20021;-64
2021/10/31 03:45:45;;;;;;;1.10;0.80;;;;;;;;;;5015997;28;20017;-65
2021/10/31 03:48:10;;;;;;;3.20;1.15;;;;;;;;;;5015698;28;20117;-65
2021/10/31 03:50:35;;;;;;;1.58;0.68;;;;;;;;;;5015897;28;20018;-64
2021/10/31 03:53:00;;;;;;;2.55;1.23;;;;;;;;;;5015835;28;20492;-65
2021/10/31 03:55:26;;;;;;;1.40;0.70;;;;;;;;;;5015569;28;20033;-65
2021/10/31 03:57:51;;;;;;;0.70;0.60;;;;;;;;;;5015369;28;20026;-65
2021/10/31 04:00:16;;;;;;;2.70;1.08;;;;;;;;;;5015707;28;20421;-65
2021/10/31 04:02:42;;;;;;;2.33;0.80;;;;;;;;;;5015567;28;20026;-65
2021/10/31 04:05:08;;;;;;;2.28;0.70;;;;;;;;;;5015713;28;20032;-64
2021/10/31 04:07:34;;;;;;;1.75;0.77;;;;;;;;;;5015798;28;20105;-64
2021/10/31 04:09:59;;;;;;;2.55;0.93;;;;;;;;;;5015613;28;20085;-66
2021/10/31 04:12:24;;;;;;;2.75;0.80;;;;;;;;;;5015315;28;20029;-65
2021/10/31 04:14:50;;;;;;;1.70;0.63;;;;;;;;;;5015117;28;20072;-65
2021/10/31 04:17:15;;;;;;;3.85;1.13;;;;;;;;;;5015222;28;20110;-65
2021/10/31 04:19:40;;;;;;;1.85;0.70;;;;;;;;;;5015312;28;20045;-65
2021/10/31 04:22:05;;;;;;;1.27;0.70;;;;;;;;;;5015234;28;20017;-65
2021/10/31 04:24:31;;;;;;;1.63;0.50;;;;;;;;;;5015135;28;20024;-64
2021/10/31 04:27:00;;;;;;;1.38;0.80;;;;;;;;;;5015232;28;20014;-65
2021/10/31 04:29:26;;;;;;;1.98;0.90;;;;;;;;;;5014869;28;20097;-64
2021/10/31 04:31:51;;;;;;;2.35;0.60;;;;;;;;;;5014978;28;20049;-64
2021/10/31 04:34:16;;;;;;;2.42;0.60;;;;;;;;;;5015347;28;20083;-65
2021/10/31 04:36:42;;;;;;;1.95;1.05;;;;;;;;;;5014767;28;20029;-65
2021/10/31 04:39:08;;;;;;;1.70;0.90;;;;;;;;;;5029825;28;20457;-65
2021/10/31 04:41:33;;;;;;;3.22;0.73;;;;;;;;;;5034593;28;20031;-64
2021/10/31 04:43:58;;;;;;;2.97;0.60;;;;;;;;;;5034658;28;20040;-65
2021/10/31 04:46:23;;;;;;;0.90;0.90;;;;;;;;;;5034712;28;20032;-65
2021/10/31 04:48:49;;;;;;;0.88;0.60;;;;;;;;;;5034418;28;20400;-64
2021/10/31 04:51:14;;;;;;;1.60;0.80;;;;;;;;;;5034445;28;20457;-64
2021/10/31 04:53:40;;;;;;;1.98;0.95;;;;;;;;;;5034254;28;20047;-65
2021/10/31 04:56:05;;;;;;;2.88;1.27;;;;;;;;;;5034586;28;20465;-65
2021/10/31 04:58:30;;;;;;;2.33;1.02;;;;;;;;;;5034270;28;20072;-64
2021/10/31 05:00:55;;;;;;;2.63;0.60;;;;;;;;;;5034087;28;20045;-64
2021/10/31 05:03:21;;;;;;;3.03;0.90;;;;;;;;;;5034110;28;20025;-65
2021/10/31 05:05:46;;;;;;;2.25;0.88;;;;;;;;;;5034150;28;20679;-65
2021/10/31 05:08:11;;;;;;;1.48;0.77;;;;;;;;;;5034056;28;20032;-64
2021/10/31 05:10:36;;;;;;;1.60;0.70;;;;;;;;;;5033934;28;20120;-64
2021/10/31 05:13:01;;;;;;;1.90;1.10;;;;;;;;;;5034162;28;20048;-64
2021/10/31 05:15:27;;;;;;;1.38;0.90;;;;;;;;;;5034073;28;20730;-65
2021/10/31 05:17:53;;;;;;;1.50;0.88;;;;;;;;;;5033724;28;20036;-64
2021/10/31 05:20:19;;;;;;;1.52;0.80;;;;;;;;;;5034052;28;20044;-65
2021/10/31 05:22:44;;;;;;;0.95;0.70;;;;;;;;;;5033629;28;20484;-65
2021/10/31 05:25:11;;;;;;;0.98;0.85;;;;;;;;;;5033854;28;20026;-63
2021/10/31 05:27:37;;;;;;;1.15;0.70;;;;;;;;;;5033736;28;20074;-63
2021/10/31 05:30:03;;;;;;;1.20;1.00;;;;;;;;;;5033653;28;20095;-65
2021/10/31 05:32:33;;;;;;;2.45;0.90;;;;;;;;;;5033775;28;20049;-64
2021/10/31 05:34:58;;;;;;;3.50;0.85;;;;;;;;;;5033565;28;20028;-64
2021/10/31 05:37:31;;;;;;;0.98;0.63;;;;;;;;;;5032086;28;20017;-65
2021/10/31 05:39:56;;;;;;;1.73;0.57;;;;;;;;;;5013992;28;20050;-65
2021/10/31 05:42:21;;;;;;;0.80;0.80;;;;;;;;;;5013807;28;20050;-63
2021/10/31 05:44:46;;;;;;;1.30;0.85;;;;;;;;;;5013631;28;20272;-63
2021/10/31 05:47:11;;;;;;;1.00;0.70;;;;;;;;;;5013888;28;20026;-65
2021/10/31 05:49:37;;;;;;;2.10;0.70;;;;;;;;;;5013107;28;20040;-65
2021/10/31 05:52:04;;;;;;;3.35;1.20;;;;;;;;;;5013650;28;20462;-64
2021/10/31 05:54:29;;;;;;;0.75;0.75;;;;;;;;;;5013781;28;20026;-64
2021/10/31 05:56:54;;;;;;;1.13;0.60;;;;;;;;;;5013395;28;20022;-64
2021/10/31 05:59:19;;;;;;;1.65;1.08;;;;;;;;;;5013496;28;20710;-64
2021/10/31 06:01:44;;;;;;;1.60;0.98;;;;;;;;;;5013328;28;20496;-64
2021/10/31 06:04:10;;;;;;;2.38;0.95;;;;;;;;;;5013156;28;20022;-65
2021/10/31 06:06:36;;;;;;;1.00;0.70;;;;;;;;;;5013584;28;20033;-64
2021/10/31 06:09:01;;;;;;;1.00;0.80;;;;;;;;;;5013371;28;20117;-63
2021/10/31 06:11:27;;;;;;;0.63;0.50;;;;;;;;;;5013463;28;20093;-64
2021/10/31 06:13:54;;;;;;;0.95;0.60;;;;;;;;;;5012939;28;20378;-65
2021/10/31 06:16:19;;;;;;;2.67;0.65;;;;;;;;;;5013482;28;20469;-65
2021/10/31 06:18:44;;;;;;;1.45;0.75;;;;;;;;;;5013297;28;20145;-63
2021/10/31 06:21:10;;;;;;;0.40;0.40;;;;;;;;;;5013471;28;20144;-63
2021/10/31 06:23:35;;;;;;;1.92;0.60;;;;;;;;;;5013346;28;20420;-65
2021/10/31 06:26:01;;;;;;;1.00;0.60;;;;;;;;;;5012945;28;20408;-65
2021/10/31 06:28:26;;;;;;;2.20;0.57;;;;;;;;;;5013340;28;20025;-64
2021/10/31 06:30:52;;;;;;;1.37;0.43;;;;;;;;;;5012710;28;20104;-64
2021/10/31 06:33:17;;;;;;;0.77;0.40;;;;;;;;;;5013293;28;20262;-65
2021/10/31 06:35:42;;;;;;;0.60;0.57;;;;;;;;;;5013210;28;20473;-64
2021/10/31 06:38:07;;;;;;;1.38;0.77;;;;;;;;;;5020391;28;20073;-64
2021/10/31 06:40:33;;;;;;;1.02;0.32;;;;;;;;;;5032794;28;20104;-65
2021/10/31 06:42:58;;;;;;;1.85;0.80;;;;;;;;;;5032427;28;20049;-65
2021/10/31 06:45:23;;;;;;;0.70;0.40;;;;;;;;;;5032977;28;20021;-64
2021/10/31 06:47:48;;;;;;;0.93;0.60;;;;;;;;;;5032417;28;20726;-64
2021/10/31 06:50:14;;;;;;;2.67;0.80;;;;;;;;;;5032844;28;20369;-65
2021/10/31 06:52:39;;;;;;;0.50;0.50;;;;;;;;;;5032727;28;20060;-64
2021/10/31 06:55:06;;;;;;;2.28;0.65;;;;;;;;;;5032509;28;20025;-63
2021/10/31 06:57:31;;;;;;;1.50;0.50;;;;;;;;;;5032795;28;20030;-65
2021/10/31 06:59:57;;;;;;;0.97;0.60;;;;;;;;;;5032691;28;20028;-65
2021/10/31 07:02:22;;;;;;;0.55;0.52;;;;;;;;;;5035194;28;20757;-64
2021/10/31 07:04:47;;;;;;;0.70;0.50;;;;;;;;;;5036433;28;20103;-64
2021/10/31 07:07:14;;;;;;;1.67;0.60;;;;;;;;;;5036269;28;20091;-65
2021/10/31 07:09:39;;;;;;;0.63;0.50;;;;;;;;;;5036468;28;20025;-64
2021/10/31 07:12:04;;;;;;;2.40;0.75;;;;;;;;;;5036288;28;20018;-64
2021/10/31 07:14:30;;;;;;;2.35;0.60;;;;;;;;;;5036414;28;20440;-65
2021/10/31 07:16:55;;;;;;;2.25;0.55;;;;;;;;;;5035965;28;20081;-65
2021/10/31 07:19:21;;;;;;;1.20;0.50;;;;;;;;;;5036524;28;20092;-64
2021/10/31 07:21:46;;;;;;;1.80;0.50;;;;;;;;;;5036030;28;20124;-63
2021/10/31 07:24:11;;;;;;;0.60;0.47;;;;;;;;;;5036162;28;20060;-64
2021/10/31 07:26:36;;;;;;;1.80;0.40;;;;;;;;;;5036096;28;20063;-65
2021/10/31 07:29:05;;;;;;;0.77;0.50;;;;;;;;;;5035874;28;20022;-65
2021/10/31 07:31:32;;;;;;;1.67;0.40;;;;;;;;;;5036020;28;20014;-64
2021/10/31 07:33:57;;;;;;;1.52;0.57;;;;;;;;;;5036034;28;20036;-65
2021/10/31 07:36:23;;;;;;;2.70;0.50;;;;;;;;;;5035876;28;20018;-64
2021/10/31 07:38:48;;;;;;;0.60;0.40;;;;;;;;;;5022819;28;20369;-63
2021/10/31 07:41:13;;;;;;;1.60;0.40;;;;;;;;;;5016323;28;20028;-64
2021/10/31 07:43:38;;;;;;;1.10;0.40;;;;;;;;;;5015532;28;20453;-65
2021/10/31 07:46:04;;;;;;;2.20;0.80;;;;;;;;;;5016184;28;20026;-65
2021/10/31 07:48:29;;;;;;;1.13;0.40;;;;;;;;;;5015929;28;20037;-64
2021/10/31 07:50:55;;;;;;;0.93;0.40;;;;;;;;;;5015778;28;20492;-64
2021/10/31 07:53:20;;;;;;;0.90;0.40;;;;;;;;;;5015628;28;20018;-65
2021/10/31 07:55:50;;;;;;;1.63;0.70;;;;;;;;;;5015764;28;20033;-65
2021/10/31 07:58:17;;;;;;;1.40;0.50;;;;;;;;;;5015890;28;20017;-64
2021/10/31 08:00:42;;;;;;;0.60;0.47;;;;;;;;;;5015358;28;20041;-65
2021/10/31 08:03:08;;;;;;;0.70;0.47;;;;;;;;;;5015572;28;20030;-65
2021/10/31 08:05:33;;;;;;;1.33;0.40;;;;;;;;;;5015667;28;20022;-63
2021/10/31 08:07:58;;;;;;;1.73;0.60;;;;;;;;;;5015306;28;20060;-63
2021/10/31 08:10:24;;;;;;;1.42;0.50;;;;;;;;;;5015691;28;20049;-65
2021/10/31 08:12:49;;;;;;;1.95;0.45;;;;;;;;;;5014464;28;20373;-65
2021/10/31 08:15:15;;;;;;;1.23;0.50;;;;;;;;;;5015384;28;20025;-64
2021/10/31 08:17:41;;;;;;;0.60;0.40;;;;;;;;;;5015279;28;20017;-64
2021/10/31 08:20:07;;;;;;;0.77;0.30;;;;;;;;;;5015450;28;20104;-64
2021/10/31 08:22:32;;;;;;;1.95;0.38;;;;;;;;;;5015318;28;20136;-64
2021/10/31 08:24:57;;;;;;;1.23;0.40;;;;;;;;;;5015105;28;20080;-64
2021/10/31 08:27:23;;;;;;;0.80;0.43;;;;;;;;;;5015204;28;20021;-65
2021/10/31 08:29:50;;;;;;;0.93;0.47;;;;;;;;;;5015000;28;20130;-65
2021/10/31 08:32:15;;;;;;;0.75;0.57;;;;;;;;;;5015174;28;20374;-63
2021/10/31 08:34:40;;;;;;;1.38;0.28;;;;;;;;;;5015019;28;20029;-64
2021/10/31 08:37:05;;;;;;;3.47;0.57;;;;;;;;;;5015183;28;20108;-65
2021/10/31 08:39:31;;;;;;;3.15;0.90;;;;;;;;;;5033532;28;20025;-64
2021/10/31 08:41:57;;;;;;;1.23;0.60;;;;;;;;;;5034657;28;20568;-64
2021/10/31 08:44:22;;;;;;;2.92;0.40;;;;;;;;;;5034468;28;20013;-64
2021/10/31 08:46:47;;;;;;;1.40;0.50;;;;;;;;;;5034617;28;20025;-64
2021/10/31 08:49:13;;;;;;;1.73;0.50;;;;;;;;;;5034519;28;20024;-64
2021/10/31 08:51:38;;;;;;;0.68;0.40;;;;;;;;;;5034289;28;20048;-64
2021/10/31 08:54:05;;;;;;;0.98;0.22;;;;;;;;;;5034453;28;20021;-65
2021/10/31 08:56:30;;;;;;;0.80;0.57;;;;;;;;;;5034363;28;20013;-64
2021/10/31 08:58:56;;;;;;;2.22;0.50;;;;;;;;;;5034301;28;20044;-64
2021/10/31 09:01:21;;;;;;;0.40;0.30;;;;;;;;;;5034133;28;20484;-65
2021/10/31 09:03:47;;;;;;;1.30;0.45;;;;;;;;;;5034030;28;20029;-65
2021/10/31 09:06:12;;;;;;;1.90;0.40;;;;;;;;;;5034381;28;20082;-64
2021/10/31 09:08:41;;;;;;;1.55;0.47;;;;;;;;;;5034055;28;20029;-63
2021/10/31 09:11:06;;;;;;;1.52;0.40;;;;;;;;;;5034169;28;20056;-64
2021/10/31 09:13:32;;;;;;;2.05;0.63;;;;;;;;;;5034042;28;20053;-65
2021/10/31 09:15:57;;;;;;;1.97;0.70;;;;;;;;;;5034115;28;20156;-64
2021/10/31 09:18:24;;;;;;;1.67;0.52;;;;;;;;;;5034039;28;20251;-64
2021/10/31 09:20:49;;;;;;;2.05;0.80;;;;;;;;;;5033822;28;20017;-64
2021/10/31 09:23:15;;;;;;;2.95;0.40;;;;;;;;;;5033857;28;20400;-64
2021/10/31 09:25:40;;;;;;;0.47;0.30;;;;;;;;;;5033698;28;20014;-64
2021/10/31 09:28:06;;;;;;;0.77;0.30;;;;;;;;;;5033896;28;20520;-63
2021/10/31 09:30:36;;;;;;;2.47;0.63;;;;;;;;;;5024370;28;20025;-65
2021/10/31 09:33:01;;;;;;;2.90;0.73;;;;;;;;;;5014105;28;20067;-64
2021/10/31 09:35:29;;;;;;;1.55;0.47;;;;;;;;;;5014171;28;20026;-63
2021/10/31 09:37:58;;;;;;;1.77;0.40;;;;;;;;;;5013770;28;20022;-65
2021/10/31 09:40:23;;;;;;;0.95;0.40;;;;;;;;;;5013633;28;20029;-65
2021/10/31 09:42:50;;;;;;;0.25;0.25;;;;;;;;;;5013985;28;20022;-63
2021/10/31 09:45:16;;;;;;;2.13;0.30;;;;;;;;;;5014080;28;20354;-64
2021/10/31 09:47:42;;;;;;;2.88;0.55;;;;;;;;;;5012458;28;20029;-64
2021/10/31 09:50:09;;;;;;;0.90;0.45;;;;;;;;;;5013746;28;20022;-64
2021/10/31 09:52:34;;;;;;;1.55;0.40;;;;;;;;;;5014066;28;20021;-64
2021/10/31 09:54:59;;;;;;;1.08;0.45;;;;;;;;;;5013357;28;20014;-64
2021/10/31 09:57:25;;;;;;;1.55;0.20;;;;;;;;;;5012272;28;20022;-64
2021/10/31 09:59:58;;;;;;;0.90;0.43;;;;;;;;;;5013213;28;20029;-64
2021/10/31 10:05:22;;;;;;;2.58;0.77;;;;;;;;;;5013508;28;20357;-63
2021/10/31 10:08:08;;;;;;;2.13;0.60;;;;;;;;;;5013418;28;20045;-63
2021/10/31 10:10:46;;;;;;;1.40;0.60;;;;;;;;;;5013595;28;20025;-65
2021/10/31 10:13:16;;;;;;;1.42;0.32;;;;;;;;;;5013403;28;20531;-64
2021/10/31 10:15:41;;;;;;;1.05;0.30;;;;;;;;;;5013249;28;20112;-64
2021/10/31 10:18:06;;;;;;;0.88;0.30;;;;;;;;;;5013398;28;20469;-65
2021/10/31 10:20:35;;;;;;;3.05;0.95;;;;;;;;;;5013585;28;20404;-64
2021/10/31 10:23:09;;;;;;;1.15;0.55;;;;;;;;;;5012952;28;20014;-63
2021/10/31 10:25:38;;;;;;;1.48;0.60;;;;;;;;;;5013316;28;20010;-64
2021/10/31 10:28:04;;;;;;;1.23;0.70;;;;;;;;;;5013095;28;20022;-64
2021/10/31 10:30:29;;;;;;;2.00;0.57;;;;;;;;;;5013456;28;20425;-64
2021/10/31 10:32:56;;;;;;;1.30;0.30;;;;;;;;;;5013365;28;20020;-63
2021/10/31 10:35:23;;;;;;;1.35;0.55;;;;;;;;;;5013403;28;20030;-65
2021/10/31 10:37:49;;;;;;;2.25;0.50;;;;;;;;;;5021149;28;20100;-63
2021/10/31 10:40:23;;;;;;;0.85;0.68;;;;;;;;;;5036913;28;20108;-63
2021/10/31 10:42:50;;;;;;;2.35;0.40;;;;;;;;;;5037032;28;20021;-65
2021/10/31 10:45:17;;;;;;;1.10;0.50;;;;;;;;;;5036981;28;20036;-64
2021/10/31 10:47:48;;;;;;;1.50;0.90;;;;;;;;;;5036754;28;20048;-63
2021/10/31 10:50:15;;;;;;;1.75;0.47;;;;;;;;;;5036643;28;20041;-65
2021/10/31 10:52:41;;;;;;;1.50;0.30;;;;;;;;;;5036675;28;20030;-64
2021/10/31 10:55:14;;;;;;;3.70;0.93;;;;;;;;;;5036911;28;20021;-64
2021/10/31 10:57:41;;;;;;;2.55;0.50;;;;;;;;;;5036730;28;20029;-64
2021/10/31 11:00:09;;;;;;;1.15;0.30;;;;;;;;;;5036418;28;20468;-64
2021/10/31 11:02:34;;;;;;;0.32;0.30;;;;;;;;;;5036687;28;20040;-64
2021/10/31 11:05:00;;;;;;;0.80;0.40;;;;;;;;;;5036422;28;20029;-64
2021/10/31 11:07:33;;;;;;;1.38;0.40;;;;;;;;;;5036300;28;20025;-63
2021/10/31 11:09:58;;;;;;;1.48;0.35;;;;;;;;;;5036568;28;20021;-64
2021/10/31 11:12:26;;;;;;;1.20;0.40;;;;;;;;;;5036373;28;20024;-65
2021/10/31 11:14:52;;;;;;;1.20;0.75;;;;;;;;;;5035951;28;20017;-64
2021/10/31 11:17:18;;;;;;;1.33;0.50;;;;;;;;;;5036564;28;20033;-64
2021/10/31 11:19:44;;;;;;;1.42;0.20;;;;;;;;;;5036067;28;20029;-65
2021/10/31 11:22:09;;;;;;;1.08;0.43;;;;;;;;;;5035983;28;20053;-64
2021/10/31 11:24:35;;;;;;;2.15;0.45;;;;;;;;;;5036191;28;20057;-63
2021/10/31 11:27:01;;;;;;;0.35;0.30;;;;;;;;;;5035812;28;20025;-64
2021/10/31 11:29:29;;;;;;;1.17;0.20;;;;;;;;;;5036292;28;20029;-64
2021/10/31 11:31:54;;;;;;;1.05;0.40;;;;;;;;;;5035717;28;20381;-64
2021/10/31 11:34:20;;;;;;;1.08;0.57;;;;;;;;;;5036073;28;20021;-63
2021/10/31 11:36:46;;;;;;;2.08;0.52;;;;;;;;;;5035999;28;20026;-65
2021/10/31 11:39:11;;;;;;;1.38;0.35;;;;;;;;;;5020162;28;20014;-64
2021/10/31 11:41:38;;;;;;;1.98;0.30;;;;;;;;;;5016015;28;20097;-63
2021/10/31 11:44:03;;;;;;;1.23;0.30;;;;;;;;;;5016094;28;20025;-63
2021/10/31 11:46:38;;;;;;;1.05;0.30;;;;;;;;;;5016015;28;20026;-64
2021/10/31 11:49:03;;;;;;;0.57;0.25;;;;;;;;;;5015023;28;20064;-64
2021/10/31 11:51:38;;;;;;;2.15;0.60;;;;;;;;;;5015954;28;20022;-64
2021/10/31 11:54:06;;;;;;;0.47;0.40;;;;;;;;;;5015827;28;20028;-64
2021/10/31 11:56:36;;;;;;;0.22;0.20;;;;;;;;;;5015756;28;20036;-65
2021/10/31 11:59:10;;;;;;;1.27;0.50;;;;;;;;;;5015841;28;20374;-63
2021/10/31 12:01:45;;;;;;;0.82;0.57;;;;;;;;;;5015763;28;20520;-63
2021/10/31 12:04:11;;;;;;;1.00;0.30;;;;;;;;;;5015660;28;20413;-65
2021/10/31 12:06:41;;;;;;;0.55;0.30;;;;;;;;;;5015922;28;20515;-64
2021/10/31 12:09:18;;;;;;;2.30;0.22;;;;;;;;;;5015752;28;20025;-64
2021/10/31 12:11:43;;;;;;;1.40;0.60;;;;;;;;;;5015549;28;20025;-64
2021/10/31 12:14:10;;;;;;;2.35;0.40;;;;;;;;;;5015539;28;20026;-64
2021/10/31 12:16:54;;;;;;;2.83;0.50;;;;;;;;;;5015478;28;20018;-63
2021/10/31 12:19:37;;;;;;;1.13;0.40;;;;;;;;;;5015636;28;20157;-66
2021/10/31 12:22:09;;;;;;;2.50;0.77;;;;;;;;;;5015277;28;20121;-64
2021/10/31 12:24:39;;;;;;;0.82;0.30;;;;;;;;;;5015323;28;20018;-64
2021/10/31 12:27:09;;;;;;;2.45;0.50;;;;;;;;;;5015388;28;20033;-65
2021/10/31 12:29:36;;;;;;;0.95;0.40;;;;;;;;;;5015399;28;20018;-64
2021/10/31 12:32:02;;;;;;;0.52;0.35;;;;;;;;;;5015201;28;20018;-63
2021/10/31 12:34:34;;;;;;;1.83;0.70;;;;;;;;;;5014797;28;20053;-63
2021/10/31 12:36:59;;;;;;;2.53;0.65;;;;;;;;;;5015315;28;20021;-65
2021/10/31 12:39:29;;;;;;;2.38;0.25;;;;;;;;;;5032996;28;20487;-64
2021/10/31 12:42:30;;;;;;;0.52;0.30;;;;;;;;;;5034565;28;20027;-64
2021/10/31 12:44:59;;;;;;;1.10;0.40;;;;;;;;;;4954306;29;20035;-64
2021/10/31 12:47:44;;;;;;;1.02;0.20;;;;;;;;;;4954446;29;20027;-63
2021/10/31 12:50:10;;;;;;;1.58;0.40;;;;;;;;;;4954016;29;20038;-65
2021/10/31 12:52:35;;;;;;;0.90;0.25;;;;;;;;;;4954266;29;20027;-64
2021/10/31 12:55:02;;;;;;;0.93;0.40;;;;;;;;;;4954406;29;20030;-64
2021/10/31 12:57:27;;;;;;;3.45;0.40;;;;;;;;;;4954115;29;20471;-64
2021/10/31 12:59:55;;;;;;;2.13;0.40;;;;;;;;;;4953781;28;20122;-65
2021/10/31 13:02:22;;;;;;;1.58;0.30;;;;;;;;;;4953875;29;20607;-65
2021/10/31 13:04:47;;;;;;;0.38;0.20;;;;;;;;;;4953944;29;20027;-64
2021/10/31 13:07:12;;;;;;;2.08;0.30;;;;;;;;;;4953763;29;20025;-64
2021/10/31 13:09:37;;;;;;;2.67;0.73;;;;;;;;;;4954137;29;20083;-65
2021/10/31 13:12:03;;;;;;;4.93;0.73;;;;;;;;;;4953949;29;20768;-62
2021/10/31 13:14:32;;;;;;;0.88;0.30;;;;;;;;;;4953969;29;20050;-61
2021/10/31 13:16:59;;;;;;;0.20;0.20;;;;;;;;;;4954081;29;20031;-62
2021/10/31 13:19:24;;;;;;;1.60;0.55;;;;;;;;;;5021178;28;20218;-62
2021/10/31 13:21:56;;;;;;;1.45;0.25;;;;;;;;;;5033879;28;20487;-62
2021/10/31 13:24:21;;;;;;;0.73;0.20;;;;;;;;;;5033817;28;20028;-61
2021/10/31 13:26:47;;;;;;;2.35;0.63;;;;;;;;;;5033997;28;20125;-62
2021/10/31 13:29:12;;;;;;;0.40;0.30;;;;;;;;;;5033899;28;20056;-62
2021/10/31 13:31:37;;;;;;;1.85;0.40;;;;;;;;;;5033704;28;20026;-62
2021/10/31 13:34:07;;;;;;;0.95;0.30;;;;;;;;;;5033881;28;20062;-62
2021/10/31 13:36:35;;;;;;;0.95;0.30;;;;;;;;;;5033851;28;20028;-62
2021/10/31 13:39:03;;;;;;;0.68;0.20;;;;;;;;;;5019115;28;20101;-62
2021/10/31 13:41:38;;;;;;;0.68;0.25;;;;;;;;;;5014243;28;20041;-62
2021/10/31 13:44:03;;;;;;;;;;;;;;;;;;5014310;28;20322;-62
2021/10/31 13:46:33;;;;;;;1.45;0.20;;;;;;;;;;5013950;28;20386;-62
2021/10/31 13:49:05;;;;;;;1.65;0.47;;;;;;;;;;5013805;28;20029;-61
2021/10/31 13:51:31;;;;;;;1.35;0.30;;;;;;;;;;5012443;28;20109;-62
2021/10/31 13:53:56;;;;;;;0.40;0.28;;;;;;;;;;5013697;28;20029;-62
2021/10/31 13:56:22;;;;;;;0.98;0.50;;;;;;;;;;5013557;28;20085;-62
2021/10/31 13:58:48;;;;;;;2.40;0.70;;;;;;;;;;5013488;28;20030;-61
2021/10/31 14:01:48;;;;;;;3.20;0.73;;;;;;;;;;5013624;28;20124;-62
2021/10/31 14:04:18;;;;;;;1.00;0.30;;;;;;;;;;4952845;29;20038;-62
2021/10/31 14:06:44;;;;;;;0.20;0.10;;;;;;;;;;4953085;29;20031;-61
2021/10/31 14:09:10;;;;;;;0.75;0.20;;;;;;;;;;4952927;29;20023;-62
2021/10/31 14:11:51;;;;;;;1.30;0.50;;;;;;;;;;4952527;28;20524;-62
2021/10/31 14:14:35;;;;;;;1.13;0.20;;;;;;;;;;4953120;29;20027;-61
2021/10/31 14:17:16;;;;;;;1.98;0.50;;;;;;;;;;4952507;29;20027;-62
2021/10/31 14:19:43;;;;;;;1.10;0.30;;;;;;;;;;4952840;29;20434;-62
2021/10/31 14:22:08;;;;;;;1.13;0.32;;;;;;;;;;4952931;29;20038;-61
2021/10/31 14:24:35;;;;;;;1.13;0.20;;;;;;;;;;4952233;29;20031;-61
2021/10/31 14:27:14;;;;;;;2.47;0.30;;;;;;;;;;4953049;29;20027;-62
2021/10/31 14:29:40;;;;;;;3.05;0.30;;;;;;;;;;4952845;29;20467;-62
2021/10/31 14:32:05;;;;;;;0.75;0.30;;;;;;;;;;4952891;29;20038;-62
2021/10/31 14:34:51;;;;;;;1.10;0.30;;;;;;;;;;4952761;29;20098;-62
2021/10/31 14:37:17;;;;;;;1.17;0.30;;;;;;;;;;4958051;28;20054;-61
2021/10/31 14:39:42;;;;;;;1.45;0.25;;;;;;;;;;5032663;28;20030;-62
2021/10/31 14:42:20;;;;;;;0.80;0.28;;;;;;;;;;5032029;28;20033;-62
2021/10/31 14:44:46;;;;;;;1.65;0.15;;;;;;;;;;5032817;28;20025;-62
2021/10/31 14:47:15;;;;;;;2.10;0.30;;;;;;;;;;5032941;28;20018;-61